.
WxDataArchive / Data Records for 2012-06-04
2012-06-03 June 2012 2012-06-05

Data Records for Monday, 04 June 2012

Time	Temp	Chill	HIndex	Humid	Dewpt	 Wind 	HiWind	WindDir	Rain 	Barom 
-----	----	-----	------	-----	-----	------	------	-------	-----	----- 
00:00	63.7	63.7	63.7	51	45.2	0	0	---	0.00	29.786 
00:05	63.9	63.9	63.9	52	45.9	0	0	---	0.00	29.786 
00:10	63.9	63.9	63.9	52	45.9	0	0	---	0.00	29.786 
00:15	63.9	63.9	63.9	52	45.9	0	0	---	0.00	29.784 
00:20	63.7	63.7	63.7	53	46.2	0	0	---	0.00	29.784 
00:25	63.5	63.5	63.5	53	46.1	0	0	---	0.00	29.784 
00:30	63.5	63.5	63.5	53	46.1	0	0	---	0.00	29.778 
00:35	63.4	63.4	63.4	53	46.0	0	0	---	0.00	29.778 
00:40	63.4	63.4	63.4	54	46.5	0	0	---	0.00	29.778 
00:45	63.4	63.4	63.4	54	46.5	0	0	---	0.00	29.776 
00:50	63.2	63.2	63.2	54	46.3	0	0	---	0.00	29.776 
00:55	63.2	63.2	63.2	54	46.3	0	0	---	0.00	29.776 
01:00	63.4	63.4	63.4	53	46.0	0	0	---	0.00	29.779 
01:05	63.5	63.5	63.5	53	46.1	0	0	---	0.00	29.779 
01:10	63.7	63.7	63.7	53	46.2	0	0	---	0.00	29.779 
01:15	63.9	63.9	63.9	53	46.4	0	0	---	0.00	29.772 
01:20	63.9	63.9	63.9	53	46.4	0	0	---	0.00	29.772 
01:25	64.0	64.0	64.0	53	46.5	0	0	---	0.00	29.772 
01:30	64.0	64.0	64.0	53	46.5	0	0	---	0.00	29.769 
01:35	64.0	64.0	64.0	53	46.5	0	0	---	0.00	29.769 
01:40	63.9	63.9	63.9	53	46.4	0	0	---	0.00	29.769 
01:45	63.9	63.9	63.9	54	46.9	0	0	---	0.00	29.768 
01:50	63.7	63.7	63.7	54	46.7	0	1	315	0.00	29.768 
01:55	63.5	63.5	63.5	54	46.6	0	1	315	0.00	29.768 
02:00	63.7	63.7	63.7	53	46.2	0	1	315	0.00	29.767 
02:05	64.0	64.0	64.0	52	46.0	0	1	315	0.00	29.767 
02:10	64.5	64.5	64.5	52	46.5	0	0	---	0.00	29.767 
02:15	64.7	64.7	64.7	52	46.7	0	1	315	0.00	29.765 
02:20	64.8	64.8	64.8	51	46.2	0	1	315	0.00	29.765 
02:25	65.0	65.0	65.0	51	46.4	0	1	315	0.00	29.765 
02:30	65.2	65.2	65.2	51	46.6	0	1	315	0.00	29.761 
02:35	65.2	65.2	65.2	51	46.6	0	1	315	0.00	29.761 
02:40	65.2	65.2	65.2	51	46.6	0	0	---	0.00	29.761 
02:45	64.8	64.8	64.8	51	46.2	0	0	---	0.00	29.758 
02:50	64.7	64.7	64.7	52	46.7	0	1	315	0.00	29.758 
02:55	64.5	64.5	64.5	52	46.5	0	1	315	0.00	29.758 
03:00	64.5	64.5	64.5	52	46.5	0	1	315	0.00	29.754 
03:05	64.5	64.5	64.5	52	46.5	0	1	315	0.00	29.754 
03:10	64.5	64.5	64.5	53	47.0	0	1	315	0.00	29.754 
03:15	64.3	64.3	64.3	53	46.8	0	1	315	0.00	29.753 
03:20	64.2	64.2	64.2	54	47.2	0	1	315	0.00	29.753 
03:25	64.0	64.0	64.0	54	47.0	0	1	315	0.00	29.753 
03:30	63.7	63.7	63.7	55	47.2	0	0	---	0.00	29.750 
03:35	63.4	63.4	63.4	56	47.4	0	0	---	0.00	29.750 
03:40	63.1	63.1	63.1	57	47.6	0	1	315	0.00	29.750 
03:45	63.1	63.1	63.1	57	47.6	0	2	315	0.00	29.751 
03:50	63.1	63.1	63.1	58	48.1	0	2	315	0.00	29.751 
03:55	63.1	63.1	63.1	58	48.1	0	2	315	0.00	29.751 
04:00	63.2	63.2	63.2	58	48.2	1	2	315	0.00	29.749 
04:05	63.4	63.4	63.4	58	48.4	0	2	315	0.00	29.749 
04:10	63.4	63.4	63.4	58	48.4	1	3	315	0.00	29.749 
04:15	63.4	63.4	63.4	59	48.8	0	2	315	0.00	29.745 
04:20	63.2	63.2	63.2	59	48.6	1	3	315	0.00	29.745 
04:25	63.2	63.2	63.2	60	49.1	1	3	315	0.00	29.745 
04:30	63.1	63.1	63.1	60	49.0	1	3	315	0.00	29.740 
04:35	63.1	63.1	63.1	60	49.0	1	2	315	0.00	29.740 
04:40	63.1	63.1	63.1	61	49.4	1	4	315	0.00	29.740 
04:45	63.1	63.1	63.1	61	49.4	1	4	315	0.00	29.739 
04:50	63.1	63.1	63.1	61	49.4	1	3	248	0.00	29.739 
04:55	62.9	62.9	62.9	61	49.2	1	3	248	0.00	29.739 
05:00	62.9	62.9	62.9	62	49.7	1	4	248	0.00	29.741 
05:05	62.9	62.9	62.9	62	49.7	1	3	248	0.00	29.741 
05:10	62.7	62.7	62.7	62	49.5	0	3	248	0.00	29.741 
05:15	62.7	62.7	62.7	62	49.5	1	3	248	0.00	29.746 
05:20	62.6	62.6	62.6	62	49.4	0	2	248	0.00	29.746 
05:25	62.6	62.6	62.6	63	49.8	0	1	248	0.00	29.746 
05:30	62.4	62.4	62.4	63	49.6	0	3	248	0.00	29.750 
05:35	62.3	62.3	62.3	64	50.0	0	1	248	0.00	29.750 
05:40	62.1	62.1	62.1	64	49.8	0	2	248	0.00	29.750 
05:45	62.0	62.0	62.0	64	49.7	0	1	248	0.00	29.751 
05:50	61.8	61.8	61.8	65	49.9	0	1	248	0.00	29.751 
05:55	61.5	61.5	61.5	65	49.6	0	1	248	0.00	29.751 
06:00	61.3	61.3	61.3	66	49.8	0	2	248	0.00	29.756 
06:05	61.2	61.2	61.2	66	49.7	0	1	248	0.00	29.756 
06:10	61.0	61.0	61.0	67	50.0	0	1	248	0.00	29.756 
06:15	60.9	60.9	60.9	67	49.9	0	1	248	0.00	29.753 
06:20	60.7	60.7	60.7	67	49.7	0	0	---	0.00	29.753 
06:25	60.5	60.5	60.5	68	49.9	0	0	---	0.00	29.753 
06:30	60.4	60.4	60.4	68	49.8	0	1	248	0.00	29.766 
06:35	60.2	60.2	60.2	69	50.0	0	1	248	0.00	29.766 
06:40	60.2	60.2	60.2	69	50.0	0	1	248	0.00	29.766 
06:45	60.1	60.1	60.1	69	49.9	0	1	248	0.00	29.765 
06:50	60.1	60.1	60.1	69	49.9	0	1	248	0.00	29.765 
06:55	59.9	59.9	59.9	70	50.1	0	1	248	0.00	29.765 
07:00	59.9	59.9	59.9	70	50.1	0	1	248	0.00	29.770 
07:05	59.9	59.9	59.9	70	50.1	0	0	---	0.00	29.770 
07:10	60.1	60.1	60.1	70	50.3	0	0	---	0.00	29.770 
07:15	60.1	60.1	60.1	70	50.3	0	1	248	0.00	29.776 
07:20	60.2	60.2	60.2	70	50.4	0	1	248	0.00	29.776 
07:25	60.2	60.2	60.2	70	50.4	0	1	248	0.00	29.776 
07:30	60.4	60.4	60.4	70	50.6	0	0	---	0.00	29.783 
07:35	60.4	60.4	60.4	70	50.6	0	0	---	0.00	29.783 
07:40	60.5	60.5	60.5	70	50.7	0	0	---	0.00	29.783 
07:45	60.5	60.5	60.5	70	50.7	0	0	---	0.00	29.787 
07:50	60.7	60.7	60.7	70	50.9	0	1	248	0.00	29.787 
07:55	60.9	60.9	60.9	69	50.7	0	0	---	0.00	29.787 
08:00	61.0	61.0	61.0	69	50.8	0	0	---	0.00	29.790 
08:05	61.2	61.2	61.2	69	50.9	0	1	248	0.00	29.790 
08:10	61.2	61.2	61.2	68	50.5	0	1	248	0.00	29.790 
08:15	61.0	61.0	61.0	67	50.0	0	1	248	0.00	29.802 
08:20	61.0	61.0	61.0	67	50.0	0	3	248	0.00	29.802 
08:25	61.3	61.3	61.3	66	49.8	0	2	248	0.00	29.802 
08:30	62.3	62.3	62.3	65	50.4	1	5	112	0.00	29.804 
08:35	63.4	63.4	63.4	62	50.1	1	4	112	0.00	29.804 
08:40	64.3	64.3	64.3	62	51.0	0	3	135	0.00	29.804 
08:45	64.8	64.8	64.8	58	49.7	0	3	135	0.00	29.805 
08:50	65.0	65.0	65.0	59	50.3	1	3	135	0.00	29.805 
08:55	64.8	64.8	64.8	59	50.1	1	3	135	0.00	29.805 
09:00	64.3	64.3	64.3	60	50.1	0	3	135	0.00	29.813 
09:05	64.2	64.2	64.2	61	50.5	0	2	135	0.00	29.813 
09:10	64.0	64.0	64.0	61	50.3	1	4	135	0.00	29.813 
09:15	64.0	64.0	64.0	61	50.3	0	3	90	0.00	29.817 
09:20	64.0	64.0	64.0	62	50.7	0	2	90	0.00	29.817 
09:25	64.2	64.2	64.2	61	50.5	0	2	90	0.00	29.817 
09:30	64.2	64.2	64.2	62	50.9	0	1	90	0.00	29.821 
09:35	64.3	64.3	64.3	62	51.0	0	2	90	0.00	29.821 
09:40	64.8	64.8	64.8	61	51.0	1	5	90	0.00	29.821 
09:45	65.5	65.5	65.5	60	51.2	0	4	90	0.00	29.827 
09:50	66.0	66.0	66.0	60	51.7	0	3	90	0.00	29.827 
09:55	66.3	66.3	66.3	59	51.5	1	4	90	0.00	29.827 
10:00	66.8	66.8	66.8	58	51.5	0	1	90	0.00	29.828 
10:05	66.9	66.9	66.9	57	51.2	0	1	90	0.00	29.828 
10:10	66.6	66.6	66.6	55	49.9	1	3	90	0.00	29.828 
10:15	67.1	67.1	67.1	54	49.9	1	5	90	0.00	29.832 
10:20	67.6	67.6	67.6	54	50.4	2	4	90	0.00	29.832 
10:25	68.1	68.1	68.1	55	51.3	1	4	90	0.00	29.832 
10:30	68.8	68.8	68.8	54	51.5	1	5	90	0.00	29.824 
10:35	69.6	69.6	69.6	51	50.7	0	1	90	0.00	29.824 
10:40	69.8	69.8	69.8	50	50.3	1	4	90	0.00	29.824 
10:45	70.1	70.1	70.1	50	50.6	0	4	90	0.00	29.822 
10:50	69.8	69.8	69.8	48	49.2	1	2	90	0.00	29.822 
10:55	69.6	69.6	69.6	50	50.1	1	6	90	0.00	29.822 
11:00	69.6	69.6	69.6	50	50.1	1	4	270	0.00	29.830 
11:05	69.8	69.8	69.8	49	49.8	1	4	270	0.00	29.830 
11:10	70.8	70.8	70.8	49	50.7	1	4	68	0.00	29.830 
11:15	71.3	71.3	71.3	47	50.0	1	3	292	0.00	29.828 
11:20	71.6	71.6	71.6	43	47.9	1	5	270	0.00	29.828 
11:25	71.8	71.8	71.8	42	47.5	1	4	90	0.00	29.828 
11:30	72.0	72.0	72.0	42	47.6	1	2	90	0.00	29.829 
11:35	72.0	72.0	72.0	42	47.6	1	3	292	0.00	29.829 
11:40	72.5	72.5	72.5	41	47.4	2	4	90	0.00	29.829 
11:45	73.2	73.2	73.2	39	46.7	3	7	90	0.00	29.823 
11:50	73.3	73.3	73.3	43	49.4	1	4	112	0.00	29.823 
11:55	73.3	73.3	73.3	38	46.1	1	6	68	0.00	29.823 
12:00	73.7	73.7	73.7	43	49.8	1	5	248	0.00	29.826 
12:05	73.5	73.5	73.5	39	47.0	2	4	270	0.00	29.826 
12:10	73.5	73.5	73.5	37	45.6	1	3	292	0.00	29.826 
12:15	73.5	73.5	73.5	37	45.6	1	5	90	0.00	29.829 
12:20	73.9	73.9	73.9	37	46.0	1	3	270	0.00	29.829 
12:25	73.7	73.7	73.7	36	45.1	2	4	0	0.00	29.829 
12:30	73.9	73.9	73.9	36	45.2	1	4	338	0.00	29.831 
12:35	74.2	74.2	74.2	36	45.5	1	4	112	0.00	29.831 
12:40	74.0	74.0	74.0	35	44.6	1	3	292	0.00	29.831 
12:45	74.2	74.2	74.2	35	44.8	1	5	270	0.00	29.831 
12:50	74.2	74.2	74.2	33	43.2	2	6	270	0.00	29.831 
12:55	74.2	74.2	74.2	34	44.0	1	5	292	0.00	29.831 
13:00	74.7	74.7	74.7	35	45.2	2	7	270	0.00	29.831 
13:05	75.3	75.3	77.1	31	42.6	1	5	68	0.00	29.831 
13:10	75.3	75.3	77.3	34	45.0	1	5	292	0.00	29.831 
13:15	75.8	75.8	77.4	33	44.6	1	7	112	0.00	29.830 
13:20	76.0	76.0	77.6	35	46.4	3	5	90	0.00	29.830 
13:25	75.8	75.8	77.5	35	46.2	1	2	90	0.00	29.830 
13:30	76.0	76.0	77.5	34	45.6	1	6	112	0.00	29.829 
13:35	76.0	76.0	77.5	33	44.8	1	4	112	0.00	29.829 
13:40	76.1	76.1	77.4	32	44.1	3	6	112	0.00	29.829 
13:45	76.1	76.1	77.6	35	46.4	3	7	68	0.00	29.822 
13:50	76.1	76.1	77.6	34	45.7	2	5	45	0.00	29.822 
13:55	76.3	76.3	77.5	32	44.3	2	7	292	0.00	29.822 
14:00	76.3	76.3	77.4	30	42.6	2	5	292	0.00	29.825 
14:05	76.7	76.7	77.7	32	44.6	1	3	292	0.00	29.825 
14:10	76.5	76.5	77.7	33	45.2	2	4	270	0.00	29.825 
14:15	76.8	76.8	77.8	33	45.5	2	6	270	0.00	29.814 
14:20	77.2	77.2	77.8	31	44.2	1	5	90	0.00	29.814 
14:25	76.8	76.8	77.6	30	43.0	1	2	90	0.00	29.814 
14:30	76.8	76.8	77.7	32	44.7	1	7	90	0.00	29.815 
14:35	76.8	76.8	77.7	31	43.9	2	5	270	0.00	29.815 
14:40	76.7	76.7	77.5	30	42.9	1	4	292	0.00	29.815 
14:45	76.5	76.5	77.4	29	41.9	1	3	45	0.00	29.814 
14:50	76.8	76.8	77.7	31	43.9	1	3	270	0.00	29.814 
14:55	77.2	77.2	77.8	30	43.3	2	6	112	0.00	29.814 
15:00	77.2	77.2	77.7	29	42.5	1	5	68	0.00	29.814 
15:05	77.6	77.6	78.0	31	44.5	1	4	68	0.00	29.814 
15:10	77.9	77.9	78.1	30	43.9	1	5	45	0.00	29.814 
15:15	78.1	78.1	78.0	27	41.4	1	5	135	0.00	29.810 
15:20	77.4	77.4	77.7	28	41.7	2	4	292	0.00	29.810 
15:25	77.4	77.4	77.6	27	40.8	2	6	315	0.00	29.810 
15:30	77.2	77.2	77.6	27	40.6	2	6	292	0.00	29.806 
15:35	77.2	77.2	77.7	29	42.5	1	5	112	0.00	29.806 
15:40	77.4	77.4	77.6	27	40.8	1	4	112	0.00	29.806 
15:45	77.6	77.6	77.8	28	41.9	1	4	90	0.00	29.807 
15:50	77.4	77.4	77.7	28	41.7	2	4	315	0.00	29.807 
15:55	77.6	77.6	77.9	29	42.8	2	5	270	0.00	29.807 
16:00	77.6	77.6	77.8	28	41.9	1	4	315	0.00	29.810 
16:05	77.6	77.6	77.8	28	41.9	1	4	270	0.00	29.810 
16:10	77.6	77.6	77.8	28	41.9	2	4	270	0.00	29.810 
16:15	77.6	77.6	77.9	29	42.8	1	3	270	0.00	29.806 
16:20	78.3	78.3	78.1	27	41.5	1	7	90	0.00	29.806 
16:25	78.1	78.1	78.0	27	41.4	1	4	202	0.00	29.806 
16:30	77.7	77.7	77.8	27	41.0	1	3	315	0.00	29.804 
16:35	77.4	77.4	77.6	27	40.8	1	4	292	0.00	29.804 
16:40	77.7	77.7	77.9	29	42.9	1	4	90	0.00	29.804 
16:45	77.7	77.7	78.0	30	43.8	1	3	90	0.00	29.802 
16:50	77.4	77.4	77.8	30	43.5	1	4	22	0.00	29.802 
16:55	77.7	77.7	77.9	29	42.9	1	5	112	0.00	29.802 
17:00	77.7	77.7	78.0	30	43.8	1	4	45	0.00	29.813 
17:05	77.7	77.7	77.8	28	42.0	1	6	45	0.00	29.813 
17:10	77.6	77.6	78.0	31	44.5	0	1	90	0.00	29.813 
17:15	77.0	77.0	77.7	31	44.0	1	5	0	0.00	29.816 
17:20	76.1	76.1	77.4	32	44.1	1	5	0	0.00	29.816 
17:25	76.0	76.0	77.5	33	44.8	1	5	90	0.00	29.816 
17:30	76.1	76.1	77.6	34	45.7	1	5	68	0.00	29.812 
17:35	76.1	76.1	77.4	32	44.1	2	10	90	0.00	29.812 
17:40	76.1	76.1	77.6	34	45.7	2	5	135	0.00	29.812 
17:45	76.0	76.0	77.5	33	44.8	2	7	90	0.00	29.814 
17:50	75.8	75.8	77.3	32	43.8	2	7	112	0.00	29.814 
17:55	75.4	75.4	77.3	34	45.1	1	4	90	0.00	29.814 
18:00	74.7	74.7	74.7	34	44.4	1	4	270	0.00	29.812 
18:05	74.6	74.6	74.6	35	45.1	0	4	338	0.00	29.812 
18:10	74.7	74.7	74.7	35	45.2	1	4	90	0.00	29.812 
18:15	74.9	74.9	74.9	34	44.6	1	5	112	0.00	29.813 
18:20	74.4	74.4	74.4	34	44.2	1	4	112	0.00	29.813 
18:25	73.9	73.9	73.9	35	44.5	0	2	270	0.00	29.813 
18:30	73.5	73.5	73.5	35	44.2	1	3	270	0.00	29.815 
18:35	73.2	73.2	73.2	36	44.6	1	4	270	0.00	29.815 
18:40	73.3	73.3	73.3	36	44.7	0	2	270	0.00	29.815 
18:45	73.3	73.3	73.3	36	44.7	1	4	292	0.00	29.819 
18:50	73.2	73.2	73.2	37	45.4	0	3	292	0.00	29.819 
18:55	72.8	72.8	72.8	37	45.0	0	3	292	0.00	29.819 
19:00	72.5	72.5	72.5	37	44.7	1	2	292	0.00	29.821 
19:05	72.3	72.3	72.3	38	45.3	1	2	292	0.00	29.821 
19:10	72.3	72.3	72.3	39	45.9	0	2	292	0.00	29.821 
19:15	72.1	72.1	72.1	39	45.8	0	1	292	0.00	29.823 
19:20	72.1	72.1	72.1	39	45.8	0	1	292	0.00	29.823 
19:25	72.0	72.0	72.0	38	45.0	0	2	292	0.00	29.823 
19:30	72.1	72.1	72.1	39	45.8	0	2	292	0.00	29.822 
19:35	72.5	72.5	72.5	38	45.4	1	5	292	0.00	29.822 
19:40	72.7	72.7	72.7	37	44.9	1	2	68	0.00	29.822 
19:45	72.7	72.7	72.7	38	45.6	0	1	68	0.00	29.822 
19:50	72.5	72.5	72.5	38	45.4	0	2	68	0.00	29.822 
19:55	72.3	72.3	72.3	38	45.3	0	3	68	0.00	29.822 
20:00	72.1	72.1	72.1	39	45.8	0	1	68	0.00	29.830 
20:05	72.0	72.0	72.0	39	45.7	0	3	90	0.00	29.830 
20:10	71.8	71.8	71.8	38	44.8	0	6	90	0.00	29.830 
20:15	71.5	71.5	71.5	39	45.2	0	2	112	0.00	29.829 
20:20	71.1	71.1	71.1	40	45.5	0	2	112	0.00	29.829 
20:25	70.9	70.9	70.9	40	45.4	0	3	112	0.00	29.829 
20:30	70.6	70.6	70.6	41	45.7	0	2	112	0.00	29.833 
20:35	70.3	70.3	70.3	41	45.5	0	1	112	0.00	29.833 
20:40	69.9	69.9	69.9	43	46.4	0	0	---	0.00	29.833 
20:45	69.6	69.6	69.6	43	46.1	0	2	112	0.00	29.832 
20:50	69.4	69.4	69.4	44	46.5	0	2	112	0.00	29.832 
20:55	69.1	69.1	69.1	45	46.9	0	2	112	0.00	29.832 
21:00	68.9	68.9	68.9	45	46.7	0	2	112	0.00	29.835 
21:05	68.6	68.6	68.6	46	47.0	0	0	---	0.00	29.835 
21:10	68.3	68.3	68.3	46	46.7	0	0	---	0.00	29.835 
21:15	67.9	67.9	67.9	47	46.9	0	0	---	0.00	29.836 
21:20	67.6	67.6	67.6	48	47.2	0	0	---	0.00	29.836 
21:25	67.3	67.3	67.3	49	47.5	0	1	112	0.00	29.836 
21:30	66.9	66.9	66.9	49	47.1	0	2	112	0.00	29.837 
21:35	66.8	66.8	66.8	49	47.0	0	0	---	0.00	29.837 
21:40	66.4	66.4	66.4	50	47.2	0	0	---	0.00	29.837 
21:45	66.1	66.1	66.1	51	47.4	0	0	---	0.00	29.845 
21:50	65.8	65.8	65.8	51	47.2	0	2	112	0.00	29.845 
21:55	65.6	65.6	65.6	52	47.5	0	0	---	0.00	29.845 
22:00	65.3	65.3	65.3	53	47.7	0	0	---	0.00	29.852 
22:05	65.0	65.0	65.0	53	47.4	0	0	---	0.00	29.852 
22:10	64.7	64.7	64.7	54	47.7	0	0	---	0.00	29.852 
22:15	64.3	64.3	64.3	55	47.8	0	0	---	0.00	29.852 
22:20	64.0	64.0	64.0	55	47.5	0	0	---	0.00	29.852 
22:25	63.9	63.9	63.9	56	47.9	0	0	---	0.00	29.852 
22:30	63.5	63.5	63.5	56	47.5	0	0	---	0.00	29.855 
22:35	63.4	63.4	63.4	57	47.9	0	0	---	0.00	29.855 
22:40	63.2	63.2	63.2	58	48.2	0	0	---	0.00	29.855 
22:45	63.1	63.1	63.1	58	48.1	0	0	---	0.00	29.861 
22:50	62.9	62.9	62.9	58	47.9	0	0	---	0.00	29.861 
22:55	62.9	62.9	62.9	58	47.9	0	0	---	0.00	29.861 
23:00	62.7	62.7	62.7	59	48.2	0	0	---	0.00	29.864 
23:05	62.6	62.6	62.6	59	48.1	0	0	---	0.00	29.864 
23:10	62.4	62.4	62.4	59	47.9	0	1	112	0.00	29.864 
23:15	62.3	62.3	62.3	59	47.8	0	0	---	0.00	29.864 
23:20	62.3	62.3	62.3	59	47.8	0	0	---	0.00	29.864 
23:25	62.3	62.3	62.3	59	47.8	0	1	112	0.00	29.864 
23:30	62.3	62.3	62.3	59	47.8	0	1	112	0.00	29.864 
23:35	62.3	62.3	62.3	60	48.2	0	0	---	0.00	29.864 
23:40	62.0	62.0	62.0	60	48.0	0	0	---	0.00	29.864 
23:45	61.8	61.8	61.8	60	47.8	0	0	---	0.00	29.866 
23:50	61.5	61.5	61.5	61	47.9	0	0	---	0.00	29.866 
23:55	61.3	61.3	61.3	61	47.7	0	0	---	0.00	29.866 

CoCoRaHS
IN-AL-39
A2 Web Hosting
Creative Commons License
GoDaddy
search engine by freefind advanced

loaded 2018-11-12 15:10:53 • last modified 2010-11-18 10:43:29
Privacy PolicyDisclaimer
• wx.awcolley.com is powered by PmWiki v.2002016 •
• all content (unless otherwise noted) © 2018 A W Colley